sensor_id;sensor_type;location;lat;lon;timestamp;pressure;altitude;pressure_sealevel;temperature;humidity
21086;BME280;34247;50.064;19.970;2023-03-04T00:00:44;99373.13;;;2.26;86.11
21086;BME280;34247;50.064;19.970;2023-03-04T00:01:50;99389.63;;;2.28;86.09
21086;BME280;34247;50.064;19.970;2023-03-04T00:02:54;99378.38;;;2.24;86.57
21086;BME280;34247;50.064;19.970;2023-03-04T00:03:59;99373.06;;;2.27;86.62
21086;BME280;34247;50.064;19.970;2023-03-04T00:05:03;99366.19;;;2.25;86.15
21086;BME280;34247;50.064;19.970;2023-03-04T00:06:13;99371.41;;;2.25;86.49
21086;BME280;34247;50.064;19.970;2023-03-04T00:07:17;99370.44;;;2.27;86.40
21086;BME280;34247;50.064;19.970;2023-03-04T00:08:21;99366.06;;;2.28;86.16
21086;BME280;34247;50.064;19.970;2023-03-04T00:09:29;99361.63;;;2.30;86.27
21086;BME280;34247;50.064;19.970;2023-03-04T00:10:33;99366.91;;;2.28;86.22
21086;BME280;34247;50.064;19.970;2023-03-04T00:11:37;99360.03;;;2.26;86.42
21086;BME280;34247;50.064;19.970;2023-03-04T00:12:41;99354.72;;;2.27;86.43
21086;BME280;34247;50.064;19.970;2023-03-04T00:13:49;99359.19;;;2.24;86.27
21086;BME280;34247;50.064;19.970;2023-03-04T00:14:53;99352.09;;;2.27;86.62
21086;BME280;34247;50.064;19.970;2023-03-04T00:15:59;99356.63;;;2.22;86.70
21086;BME280;34247;50.064;19.970;2023-03-04T00:17:29;99358.06;;;2.32;86.46
21086;BME280;34247;50.064;19.970;2023-03-04T00:18:33;99352.59;;;2.38;86.32
21086;BME280;34247;50.064;19.970;2023-03-04T00:19:37;99356.81;;;2.42;85.93
21086;BME280;34247;50.064;19.970;2023-03-04T00:20:41;99349.22;;;2.35;86.05
21086;BME280;34247;50.064;19.970;2023-03-04T00:21:45;99358.84;;;2.34;86.19
21086;BME280;34247;50.064;19.970;2023-03-04T00:22:49;99336.28;;;2.30;86.49
21086;BME280;34247;50.064;19.970;2023-03-04T00:23:53;99344.00;;;2.35;86.42
21086;BME280;34247;50.064;19.970;2023-03-04T00:24:58;99345.97;;;2.28;86.60
21086;BME280;34247;50.064;19.970;2023-03-04T00:26:02;99342.53;;;2.26;86.86
21086;BME280;34247;50.064;19.970;2023-03-04T00:27:06;99343.28;;;2.30;86.70
21086;BME280;34247;50.064;19.970;2023-03-04T00:28:13;99338.09;;;2.28;86.92
21086;BME280;34247;50.064;19.970;2023-03-04T00:29:17;99336.28;;;2.30;86.78
21086;BME280;34247;50.064;19.970;2023-03-04T00:30:23;99326.66;;;2.31;86.86
21086;BME280;34247;50.064;19.970;2023-03-04T00:31:33;99323.09;;;2.33;86.79
21086;BME280;34247;50.064;19.970;2023-03-04T00:32:38;99323.09;;;2.33;86.57
21086;BME280;34247;50.064;19.970;2023-03-04T00:33:44;99326.44;;;2.37;86.65
21086;BME280;34247;50.064;19.970;2023-03-04T00:34:48;99322.06;;;2.37;86.91
21086;BME280;34247;50.064;19.970;2023-03-04T00:35:53;99325.44;;;2.41;86.69
21086;BME280;34247;50.064;19.970;2023-03-04T00:37:11;99315.88;;;2.40;86.49
21086;BME280;34247;50.064;19.970;2023-03-04T00:38:16;99320.28;;;2.39;86.21
21086;BME280;34247;50.064;19.970;2023-03-04T00:39:20;99321.16;;;2.38;86.11
21086;BME280;34247;50.064;19.970;2023-03-04T00:40:24;99316.69;;;2.42;86.03
21086;BME280;34247;50.064;19.970;2023-03-04T00:41:28;99323.56;;;2.44;85.91
21086;BME280;34247;50.064;19.970;2023-03-04T00:42:32;99317.59;;;2.41;85.93
21086;BME280;34247;50.064;19.970;2023-03-04T00:43:36;99311.59;;;2.37;86.22
21086;BME280;34247;50.064;19.970;2023-03-04T00:44:40;99311.69;;;2.34;86.30
21086;BME280;34247;50.064;19.970;2023-03-04T00:45:44;99302.13;;;2.33;86.49
21086;BME280;34247;50.064;19.970;2023-03-04T00:46:48;99298.81;;;2.28;86.45
21086;BME280;34247;50.064;19.970;2023-03-04T00:47:53;99303.25;;;2.26;86.97
21086;BME280;34247;50.064;19.970;2023-03-04T00:48:57;99311.00;;;2.29;86.92
21086;BME280;34247;50.064;19.970;2023-03-04T00:50:01;99301.31;;;2.31;86.77
21086;BME280;34247;50.064;19.970;2023-03-04T00:51:15;99306.66;;;2.28;86.69
21086;BME280;34247;50.064;19.970;2023-03-04T00:52:23;99304.91;;;2.29;86.81
21086;BME280;34247;50.064;19.970;2023-03-04T00:53:27;99302.22;;;2.30;86.86
21086;BME280;34247;50.064;19.970;2023-03-04T00:54:31;99302.22;;;2.30;86.63
21086;BME280;34247;50.064;19.970;2023-03-04T00:55:36;99297.09;;;2.27;86.70
21086;BME280;34247;50.064;19.970;2023-03-04T00:56:40;99294.53;;;2.26;87.09
21086;BME280;34247;50.064;19.970;2023-03-04T00:57:45;99286.56;;;2.29;87.05
21086;BME280;34247;50.064;19.970;2023-03-04T00:58:50;99288.28;;;2.30;87.05
21086;BME280;34247;50.064;19.970;2023-03-04T00:59:54;99284.00;;;2.27;86.98
21086;BME280;34247;50.064;19.970;2023-03-04T01:00:58;99279.50;;;2.31;87.09
21086;BME280;34247;50.064;19.970;2023-03-04T01:02:02;99276.09;;;2.29;86.94
21086;BME280;34247;50.064;19.970;2023-03-04T01:03:12;99273.41;;;2.30;86.96
21086;BME280;34247;50.064;19.970;2023-03-04T01:04:16;99273.31;;;2.33;87.00
21086;BME280;34247;50.064;19.970;2023-03-04T01:05:21;99269.03;;;2.31;86.94
21086;BME280;34247;50.064;19.970;2023-03-04T01:06:25;99270.72;;;2.32;86.95
21086;BME280;34247;50.064;19.970;2023-03-04T01:07:29;99257.59;;;2.33;86.88
21086;BME280;34247;50.064;19.970;2023-03-04T01:08:33;99258.34;;;2.37;86.67
21086;BME280;34247;50.064;19.970;2023-03-04T01:09:37;99261.81;;;2.37;86.72
21086;BME280;34247;50.064;19.970;2023-03-04T01:10:41;99255.84;;;2.34;86.63
21086;BME280;34247;50.064;19.970;2023-03-04T01:11:45;99260.44;;;2.27;87.08
21086;BME280;34247;50.064;19.970;2023-03-04T01:12:49;99251.72;;;2.27;87.23
21086;BME280;34247;50.064;19.970;2023-03-04T01:13:52;99251.53;;;2.31;87.24
21086;BME280;34247;50.064;19.970;2023-03-04T01:14:56;99251.72;;;2.27;87.18
21086;BME280;34247;50.064;19.970;2023-03-04T01:16:00;99248.34;;;2.23;87.27
21086;BME280;34247;50.064;19.970;2023-03-04T01:17:11;99255.41;;;2.21;87.50
21086;BME280;34247;50.064;19.970;2023-03-04T01:18:18;99240.69;;;2.17;87.88
21086;BME280;34247;50.064;19.970;2023-03-04T01:19:22;99242.31;;;2.21;87.87
21086;BME280;34247;50.064;19.970;2023-03-04T01:20:25;99238.78;;;2.22;87.80
21086;BME280;34247;50.064;19.970;2023-03-04T01:21:29;99238.63;;;2.27;87.74
21086;BME280;34247;50.064;19.970;2023-03-04T01:22:33;99241.97;;;2.30;87.69
21086;BME280;34247;50.064;19.970;2023-03-04T01:23:40;99240.97;;;2.34;87.07
21086;BME280;34247;50.064;19.970;2023-03-04T01:24:44;99239.47;;;2.27;87.49
21086;BME280;34247;50.064;19.970;2023-03-04T01:25:48;99230.56;;;2.33;87.50
21086;BME280;34247;50.064;19.970;2023-03-04T01:26:57;99226.38;;;2.27;87.65
21086;BME280;34247;50.064;19.970;2023-03-04T01:28:03;99226.59;;;2.21;87.81
21086;BME280;34247;50.064;19.970;2023-03-04T01:29:20;99230.84;;;2.25;87.85
21086;BME280;34247;50.064;19.970;2023-03-04T01:30:23;99228.38;;;2.20;87.91
21086;BME280;34247;50.064;19.970;2023-03-04T01:31:36;99227.38;;;2.23;87.81
21086;BME280;34247;50.064;19.970;2023-03-04T01:32:40;99222.06;;;2.26;87.60
21086;BME280;34247;50.064;19.970;2023-03-04T01:33:44;99217.81;;;2.22;87.71
21086;BME280;34247;50.064;19.970;2023-03-04T01:34:47;99210.72;;;2.26;87.94
21086;BME280;34247;50.064;19.970;2023-03-04T01:35:51;99215.00;;;2.28;87.45
21086;BME280;34247;50.064;19.970;2023-03-04T01:36:55;99212.50;;;2.25;87.80
21086;BME280;34247;50.064;19.970;2023-03-04T01:37:58;99211.78;;;2.20;87.96
21086;BME280;34247;50.064;19.970;2023-03-04T01:39:07;99210.75;;;2.24;87.85
21086;BME280;34247;50.064;19.970;2023-03-04T01:40:12;99214.41;;;2.20;87.72
21086;BME280;34247;50.064;19.970;2023-03-04T01:41:28;99211.84;;;2.18;88.20
21086;BME280;34247;50.064;19.970;2023-03-04T01:42:39;99206.66;;;2.17;88.16
21086;BME280;34247;50.064;19.970;2023-03-04T01:43:48;99210.81;;;2.22;88.02
21086;BME280;34247;50.064;19.970;2023-03-04T01:44:52;99207.25;;;2.25;88.09
21086;BME280;34247;50.064;19.970;2023-03-04T01:45:57;99209.97;;;2.22;87.86
21086;BME280;34247;50.064;19.970;2023-03-04T01:47:01;99207.34;;;2.22;88.07
21086;BME280;34247;50.064;19.970;2023-03-04T01:48:36;99201.91;;;2.28;88.02
21086;BME280;34247;50.064;19.970;2023-03-04T01:49:52;99199.28;;;2.28;87.70
21086;BME280;34247;50.064;19.970;2023-03-04T01:50:57;99209.75;;;2.28;87.77
21086;BME280;34247;50.064;19.970;2023-03-04T01:52:03;99196.66;;;2.28;87.55
21086;BME280;34247;50.064;19.970;2023-03-04T01:53:23;99207.84;;;2.33;87.67
21086;BME280;34247;50.064;19.970;2023-03-04T01:54:28;99198.28;;;2.32;87.25
21086;BME280;34247;50.064;19.970;2023-03-04T01:55:32;99200.97;;;2.29;87.71
21086;BME280;34247;50.064;19.970;2023-03-04T01:56:39;99202.53;;;2.35;87.42
21086;BME280;34247;50.064;19.970;2023-03-04T01:57:46;99199.84;;;2.36;87.31
21086;BME280;34247;50.064;19.970;2023-03-04T01:59:18;99203.09;;;2.43;86.89
21086;BME280;34247;50.064;19.970;2023-03-04T02:00:32;99200.78;;;2.35;87.15
21086;BME280;34247;50.064;19.970;2023-03-04T02:01:45;99197.34;;;2.33;87.17
21086;BME280;34247;50.064;19.970;2023-03-04T02:03:04;99205.22;;;2.33;87.34
21086;BME280;34247;50.064;19.970;2023-03-04T02:04:23;99191.38;;;2.30;87.42
21086;BME280;34247;50.064;19.970;2023-03-04T02:05:29;99204.59;;;2.27;87.46
21086;BME280;34247;50.064;19.970;2023-03-04T02:06:41;99200.97;;;2.29;87.47
21086;BME280;34247;50.064;19.970;2023-03-04T02:07:45;99194.09;;;2.27;87.65
21086;BME280;34247;50.064;19.970;2023-03-04T02:08:49;99195.88;;;2.26;87.83
21086;BME280;34247;50.064;19.970;2023-03-04T02:09:54;99191.53;;;2.25;87.79
21086;BME280;34247;50.064;19.970;2023-03-04T02:10:58;99197.50;;;2.29;87.54
21086;BME280;34247;50.064;19.970;2023-03-04T02:12:02;99197.66;;;2.24;87.82
21086;BME280;34247;50.064;19.970;2023-03-04T02:13:28;99177.53;;;2.26;87.69
21086;BME280;34247;50.064;19.970;2023-03-04T02:14:31;99190.63;;;2.26;87.55
21086;BME280;34247;50.064;19.970;2023-03-04T02:15:35;99184.25;;;2.33;87.25
21086;BME280;34247;50.064;19.970;2023-03-04T02:16:39;99187.88;;;2.29;87.19
21086;BME280;34247;50.064;19.970;2023-03-04T02:17:43;99186.19;;;2.28;87.48
21086;BME280;34247;50.064;19.970;2023-03-04T02:18:58;99176.69;;;2.26;87.26
21086;BME280;34247;50.064;19.970;2023-03-04T02:21:55;99176.50;;;2.30;87.22
21086;BME280;34247;50.064;19.970;2023-03-04T02:23:24;99181.81;;;2.29;87.20
21086;BME280;34247;50.064;19.970;2023-03-04T02:25:05;99180.72;;;2.34;87.37
21086;BME280;34247;50.064;19.970;2023-03-04T02:26:26;99182.22;;;2.41;87.21
21086;BME280;34247;50.064;19.970;2023-03-04T02:27:31;99186.53;;;2.42;87.10
21086;BME280;34247;50.064;19.970;2023-03-04T02:28:35;99191.06;;;2.37;86.54
21086;BME280;34247;50.064;19.970;2023-03-04T02:29:41;99183.41;;;2.33;86.69
21086;BME280;34247;50.064;19.970;2023-03-04T02:30:45;99181.47;;;2.38;86.78
21086;BME280;34247;50.064;19.970;2023-03-04T02:31:53;99182.50;;;2.34;86.91
21086;BME280;34247;50.064;19.970;2023-03-04T02:33:00;99181.47;;;2.38;86.76
21086;BME280;34247;50.064;19.970;2023-03-04T02:35:27;99175.38;;;2.37;87.07
21086;BME280;34247;50.064;19.970;2023-03-04T02:36:33;99171.81;;;2.38;86.92
21086;BME280;34247;50.064;19.970;2023-03-04T02:37:37;99173.56;;;2.39;86.84
21086;BME280;34247;50.064;19.970;2023-03-04T02:38:40;99169.19;;;2.40;86.77
21086;BME280;34247;50.064;19.970;2023-03-04T02:39:48;99177.91;;;2.39;86.75
21086;BME280;34247;50.064;19.970;2023-03-04T02:40:54;99167.50;;;2.37;86.90
21086;BME280;34247;50.064;19.970;2023-03-04T02:42:01;99160.69;;;2.33;86.94
21086;BME280;34247;50.064;19.970;2023-03-04T02:43:15;99154.53;;;2.34;86.88
21086;BME280;34247;50.064;19.970;2023-03-04T02:44:29;99158.09;;;2.32;86.99
21086;BME280;34247;50.064;19.970;2023-03-04T02:45:39;99159.78;;;2.34;87.03
21086;BME280;34247;50.064;19.970;2023-03-04T02:46:44;99159.56;;;2.40;86.68
21086;BME280;34247;50.064;19.970;2023-03-04T02:47:49;99153.56;;;2.37;86.77
21086;BME280;34247;50.064;19.970;2023-03-04T02:48:53;99148.25;;;2.38;86.59
21086;BME280;34247;50.064;19.970;2023-03-04T02:49:57;99149.06;;;2.40;86.43
21086;BME280;34247;50.064;19.970;2023-03-04T02:51:01;99151.91;;;2.34;86.56
21086;BME280;34247;50.064;19.970;2023-03-04T02:52:16;99149.44;;;2.30;87.19
21086;BME280;34247;50.064;19.970;2023-03-04T02:53:21;99137.97;;;2.34;86.96
21086;BME280;34247;50.064;19.970;2023-03-04T02:54:28;99141.09;;;2.43;86.72
21086;BME280;34247;50.064;19.970;2023-03-04T02:55:32;99141.94;;;2.44;86.08
21086;BME280;34247;50.064;19.970;2023-03-04T02:56:36;99128.06;;;2.42;86.30
21086;BME280;34247;50.064;19.970;2023-03-04T02:57:40;99129.81;;;2.41;85.93
21086;BME280;34247;50.064;19.970;2023-03-04T02:58:47;99137.63;;;2.43;85.95
21086;BME280;34247;50.064;19.970;2023-03-04T02:59:51;99132.53;;;2.38;86.05
21086;BME280;34247;50.064;19.970;2023-03-04T03:00:57;99123.59;;;2.44;86.16
21086;BME280;34247;50.064;19.970;2023-03-04T03:02:01;99125.50;;;2.40;86.09
21086;BME280;34247;50.064;19.970;2023-03-04T03:03:12;99113.25;;;2.41;86.26
21086;BME280;34247;50.064;19.970;2023-03-04T03:04:20;99120.28;;;2.39;86.21
21086;BME280;34247;50.064;19.970;2023-03-04T03:05:28;99114.09;;;2.41;86.19
21086;BME280;34247;50.064;19.970;2023-03-04T03:06:32;99118.56;;;2.39;85.72
21086;BME280;34247;50.064;19.970;2023-03-04T03:07:36;99115.94;;;2.39;86.14
21086;BME280;34247;50.064;19.970;2023-03-04T03:08:41;99131.53;;;2.42;85.75
21086;BME280;34247;50.064;19.970;2023-03-04T03:09:45;99121.09;;;2.41;85.80
21086;BME280;34247;50.064;19.970;2023-03-04T03:10:49;99122.88;;;2.40;85.64
21086;BME280;34247;50.064;19.970;2023-03-04T03:11:53;99129.91;;;2.38;85.80
21086;BME280;34247;50.064;19.970;2023-03-04T03:12:58;99119.63;;;2.34;85.77
21086;BME280;34247;50.064;19.970;2023-03-04T03:14:03;99121.41;;;2.33;86.10
21086;BME280;34247;50.064;19.970;2023-03-04T03:15:11;99125.78;;;2.33;86.20
21086;BME280;34247;50.064;19.970;2023-03-04T03:16:15;99129.13;;;2.36;86.15
21086;BME280;34247;50.064;19.970;2023-03-04T03:17:19;99127.19;;;2.41;86.02
21086;BME280;34247;50.064;19.970;2023-03-04T03:18:22;99119.50;;;2.37;85.89
21086;BME280;34247;50.064;19.970;2023-03-04T03:19:26;99123.72;;;2.41;85.70
21086;BME280;34247;50.064;19.970;2023-03-04T03:20:29;99118.44;;;2.42;85.70
21086;BME280;34247;50.064;19.970;2023-03-04T03:21:33;99117.50;;;2.43;85.52
21086;BME280;34247;50.064;19.970;2023-03-04T03:22:39;99115.75;;;2.44;85.55
21086;BME280;34247;50.064;19.970;2023-03-04T03:23:42;99111.28;;;2.46;85.71
21086;BME280;34247;50.064;19.970;2023-03-04T03:24:46;99104.31;;;2.46;85.26
21086;BME280;34247;50.064;19.970;2023-03-04T03:25:50;99109.59;;;2.45;85.59
21086;BME280;34247;50.064;19.970;2023-03-04T03:26:54;99108.63;;;2.47;85.17
21086;BME280;34247;50.064;19.970;2023-03-04T03:27:58;99101.78;;;2.43;85.15
21086;BME280;34247;50.064;19.970;2023-03-04T03:29:02;99104.63;;;2.37;85.28
21086;BME280;34247;50.064;19.970;2023-03-04T03:30:13;99110.44;;;2.45;85.00
21086;BME280;34247;50.064;19.970;2023-03-04T03:31:18;99105.63;;;2.35;85.43
21086;BME280;34247;50.064;19.970;2023-03-04T03:32:22;99108.25;;;2.35;85.43
21086;BME280;34247;50.064;19.970;2023-03-04T03:33:26;99109.94;;;2.36;85.65
21086;BME280;34247;50.064;19.970;2023-03-04T03:34:31;99107.25;;;2.37;85.20
21086;BME280;34247;50.064;19.970;2023-03-04T03:35:35;99108.97;;;2.38;85.17
21086;BME280;34247;50.064;19.970;2023-03-04T03:36:42;99111.28;;;2.46;85.16
21086;BME280;34247;50.064;19.970;2023-03-04T03:37:46;99110.41;;;2.47;84.91
21086;BME280;34247;50.064;19.970;2023-03-04T03:38:52;99114.88;;;2.43;84.80
21086;BME280;34247;50.064;19.970;2023-03-04T03:39:56;99113.97;;;2.44;84.66
21086;BME280;34247;50.064;19.970;2023-03-04T03:41:10;99127.63;;;2.53;84.85
21086;BME280;34247;50.064;19.970;2023-03-04T03:42:14;99115.34;;;2.55;84.63
21086;BME280;34247;50.064;19.970;2023-03-04T03:43:20;99119.84;;;2.51;84.47
21086;BME280;34247;50.064;19.970;2023-03-04T03:44:24;99116.06;;;2.58;84.37
21086;BME280;34247;50.064;19.970;2023-03-04T03:45:33;99111.56;;;2.62;84.28
21086;BME280;34247;50.064;19.970;2023-03-04T03:46:37;99109.00;;;2.60;83.96
21086;BME280;34247;50.064;19.970;2023-03-04T03:47:41;99103.19;;;2.52;84.24
21086;BME280;34247;50.064;19.970;2023-03-04T03:48:45;99105.81;;;2.52;84.37
21086;BME280;34247;50.064;19.970;2023-03-04T03:49:49;99106.56;;;2.56;83.96
21086;BME280;34247;50.064;19.970;2023-03-04T03:50:54;99101.03;;;2.63;83.91
21086;BME280;34247;50.064;19.970;2023-03-04T03:51:58;99099.25;;;2.64;83.70
21086;BME280;34247;50.064;19.970;2023-03-04T03:53:03;99103.44;;;2.68;83.73
21086;BME280;34247;50.064;19.970;2023-03-04T03:54:09;99100.59;;;2.74;83.48
21086;BME280;34247;50.064;19.970;2023-03-04T03:55:13;99102.66;;;2.66;83.22
21086;BME280;34247;50.064;19.970;2023-03-04T03:56:17;99113.91;;;2.69;83.23
21086;BME280;34247;50.064;19.970;2023-03-04T03:57:21;99120.09;;;2.67;83.32
21086;BME280;34247;50.064;19.970;2023-03-04T03:58:28;99102.78;;;2.63;83.47
21086;BME280;34247;50.064;19.970;2023-03-04T03:59:32;99108.22;;;2.58;83.48
21086;BME280;34247;50.064;19.970;2023-03-04T04:00:36;99099.50;;;2.58;83.60
21086;BME280;34247;50.064;19.970;2023-03-04T04:01:46;99099.50;;;2.58;83.50
21086;BME280;34247;50.064;19.970;2023-03-04T04:02:52;99105.66;;;2.57;83.71
21086;BME280;34247;50.064;19.970;2023-03-04T04:03:58;99099.25;;;2.64;83.69
21086;BME280;34247;50.064;19.970;2023-03-04T04:05:08;99112.38;;;2.64;83.69
21086;BME280;34247;50.064;19.970;2023-03-04T04:06:12;99106.34;;;2.62;83.40
21086;BME280;34247;50.064;19.970;2023-03-04T04:07:17;99104.63;;;2.61;83.28
21086;BME280;34247;50.064;19.970;2023-03-04T04:08:21;99105.41;;;2.63;83.18
21086;BME280;34247;50.064;19.970;2023-03-04T04:09:25;99108.03;;;2.63;83.13
21086;BME280;34247;50.064;19.970;2023-03-04T04:10:28;99107.25;;;2.61;82.94
21086;BME280;34247;50.064;19.970;2023-03-04T04:11:32;99100.47;;;2.55;82.83
21086;BME280;34247;50.064;19.970;2023-03-04T06:59:41;99042.25;;;2.25;83.14
21086;BME280;34247;50.064;19.970;2023-03-04T07:00:45;99053.53;;;2.27;83.09
21086;BME280;34247;50.064;19.970;2023-03-04T07:01:49;99047.59;;;2.22;83.14
21086;BME280;34247;50.064;19.970;2023-03-04T07:02:58;99045.78;;;2.24;82.94
21086;BME280;34247;50.064;19.970;2023-03-04T07:04:02;99049.38;;;2.21;83.15
21086;BME280;34247;50.064;19.970;2023-03-04T07:05:10;99048.38;;;2.24;83.45
21086;BME280;34247;50.064;19.970;2023-03-04T07:06:18;99057.13;;;2.25;83.10
21086;BME280;34247;50.064;19.970;2023-03-04T07:07:24;99050.84;;;2.29;83.19
21086;BME280;34247;50.064;19.970;2023-03-04T07:08:29;99048.34;;;2.26;83.17
21086;BME280;34247;50.064;19.970;2023-03-04T07:09:33;99054.53;;;2.23;83.46
21086;BME280;34247;50.064;19.970;2023-03-04T07:10:36;99060.34;;;2.31;83.37
21086;BME280;34247;50.064;19.970;2023-03-04T07:11:40;99055.00;;;2.34;83.47
21086;BME280;34247;50.064;19.970;2023-03-04T07:12:44;99068.09;;;2.34;83.19
21086;BME280;34247;50.064;19.970;2023-03-04T07:13:49;99058.56;;;2.32;82.98
21086;BME280;34247;50.064;19.970;2023-03-04T07:14:53;99053.16;;;2.36;82.86
21086;BME280;34247;50.064;19.970;2023-03-04T07:15:59;99061.94;;;2.35;82.61
21086;BME280;34247;50.064;19.970;2023-03-04T07:17:03;99060.25;;;2.34;82.65
21086;BME280;34247;50.064;19.970;2023-03-04T07:18:12;99055.00;;;2.34;82.48
21086;BME280;34247;50.064;19.970;2023-03-04T07:19:16;99072.06;;;2.44;82.03
21086;BME280;34247;50.064;19.970;2023-03-04T07:20:20;99072.06;;;2.44;82.04
21086;BME280;34247;50.064;19.970;2023-03-04T07:21:24;99065.25;;;2.40;81.38
21086;BME280;34247;50.064;19.970;2023-03-04T07:22:28;99061.47;;;2.47;81.22
21086;BME280;34247;50.064;19.970;2023-03-04T07:23:33;99068.53;;;2.45;80.96
21086;BME280;34247;50.064;19.970;2023-03-04T07:24:37;99071.41;;;2.39;80.72
21086;BME280;34247;50.064;19.970;2023-03-04T07:25:41;99070.13;;;2.49;80.48
21086;BME280;34247;50.064;19.970;2023-03-04T07:26:45;99079.59;;;2.54;80.32
21086;BME280;34247;50.064;19.970;2023-03-04T07:27:48;99077.75;;;2.56;79.83
21086;BME280;34247;50.064;19.970;2023-03-04T07:28:52;99079.38;;;2.58;79.31
21086;BME280;34247;50.064;19.970;2023-03-04T07:29:57;99085.66;;;2.54;79.41
21086;BME280;34247;50.064;19.970;2023-03-04T07:31:30;99087.31;;;2.57;78.93
21086;BME280;34247;50.064;19.970;2023-03-04T07:32:34;99082.69;;;2.63;78.89
21086;BME280;34247;50.064;19.970;2023-03-04T07:33:38;99083.78;;;2.58;78.78
21086;BME280;34247;50.064;19.970;2023-03-04T07:34:42;99080.53;;;2.51;79.01
21086;BME280;34247;50.064;19.970;2023-03-04T07:35:48;99083.09;;;2.53;79.06
21086;BME280;34247;50.064;19.970;2023-03-04T07:36:52;99085.78;;;2.51;79.01
21086;BME280;34247;50.064;19.970;2023-03-04T07:37:56;99085.84;;;2.49;78.91
21086;BME280;34247;50.064;19.970;2023-03-04T07:38:59;99086.91;;;2.44;79.19
21086;BME280;34247;50.064;19.970;2023-03-04T07:40:04;99082.53;;;2.44;79.18
21086;BME280;34247;50.064;19.970;2023-03-04T07:41:15;99081.63;;;2.45;79.42
21086;BME280;34247;50.064;19.970;2023-03-04T07:42:19;99088.53;;;2.48;79.56
21086;BME280;34247;50.064;19.970;2023-03-04T07:43:25;99087.53;;;2.51;79.36
21086;BME280;34247;50.064;19.970;2023-03-04T07:44:29;99084.00;;;2.52;79.47
21086;BME280;34247;50.064;19.970;2023-03-04T07:45:33;99098.16;;;2.47;79.27
21086;BME280;34247;50.064;19.970;2023-03-04T07:46:37;99086.06;;;2.43;79.47
21086;BME280;34247;50.064;19.970;2023-03-04T07:47:41;99087.91;;;2.41;79.69
21086;BME280;34247;50.064;19.970;2023-03-04T07:48:45;99082.84;;;2.37;80.01
21086;BME280;34247;50.064;19.970;2023-03-04T07:49:49;99084.44;;;2.41;79.93
21086;BME280;34247;50.064;19.970;2023-03-04T07:51:10;99085.84;;;2.49;79.98
21086;BME280;34247;50.064;19.970;2023-03-04T07:52:15;99093.88;;;2.45;80.00
21086;BME280;34247;50.064;19.970;2023-03-04T07:53:19;99091.44;;;2.40;80.20
21086;BME280;34247;50.064;19.970;2023-03-04T07:54:22;99086.81;;;2.47;80.38
21086;BME280;34247;50.064;19.970;2023-03-04T07:55:29;99098.81;;;2.53;80.20
21086;BME280;34247;50.064;19.970;2023-03-04T07:56:34;99098.09;;;2.49;79.86
21086;BME280;34247;50.064;19.970;2023-03-04T07:57:40;99099.34;;;2.39;80.52
21086;BME280;34247;50.064;19.970;2023-03-04T07:58:44;99106.03;;;2.46;80.67
21086;BME280;34247;50.064;19.970;2023-03-04T07:59:48;99113.06;;;2.45;80.57
21086;BME280;34247;50.064;19.970;2023-03-04T08:00:52;99110.34;;;2.48;80.36
21086;BME280;34247;50.064;19.970;2023-03-04T08:01:56;99101.41;;;2.54;80.23
21086;BME280;34247;50.064;19.970;2023-03-04T08:03:03;99111.19;;;2.49;80.59
21086;BME280;34247;50.064;19.970;2023-03-04T08:04:10;99111.25;;;2.47;80.68
21086;BME280;34247;50.064;19.970;2023-03-04T08:05:15;99109.56;;;2.46;80.96
21086;BME280;34247;50.064;19.970;2023-03-04T08:06:21;99115.50;;;2.50;80.84
21086;BME280;34247;50.064;19.970;2023-03-04T08:07:28;99111.88;;;2.54;80.92
21086;BME280;34247;50.064;19.970;2023-03-04T08:08:32;99116.91;;;2.59;80.57
21086;BME280;34247;50.064;19.970;2023-03-04T08:09:36;99109.19;;;2.56;80.53
21086;BME280;34247;50.064;19.970;2023-03-04T08:10:43;99113.66;;;2.54;80.88
21086;BME280;34247;50.064;19.970;2023-03-04T08:11:47;99109.97;;;2.58;80.61
21086;BME280;34247;50.064;19.970;2023-03-04T08:12:51;99118.00;;;2.53;80.70
21086;BME280;34247;50.064;19.970;2023-03-04T08:13:56;99117.06;;;2.56;80.98
21086;BME280;34247;50.064;19.970;2023-03-04T08:15:03;99119.53;;;2.59;80.76
21086;BME280;34247;50.064;19.970;2023-03-04T08:16:15;99112.50;;;2.61;80.68
21086;BME280;34247;50.064;19.970;2023-03-04T08:17:20;99125.59;;;2.61;80.67
21086;BME280;34247;50.064;19.970;2023-03-04T08:18:27;99113.75;;;2.51;81.15
21086;BME280;34247;50.064;19.970;2023-03-04T08:19:31;99116.66;;;2.43;81.84
21086;BME280;34247;50.064;19.970;2023-03-04T08:20:35;99127.25;;;2.40;82.14
21086;BME280;34247;50.064;19.970;2023-03-04T08:21:42;99121.16;;;2.39;82.23
21086;BME280;34247;50.064;19.970;2023-03-04T08:22:46;99113.53;;;2.33;82.22
21086;BME280;34247;50.064;19.970;2023-03-04T08:23:51;99115.31;;;2.33;82.38
21086;BME280;34247;50.064;19.970;2023-03-04T08:24:55;99115.25;;;2.34;82.57
21086;BME280;34247;50.064;19.970;2023-03-04T08:26:05;99115.13;;;2.37;82.61
21086;BME280;34247;50.064;19.970;2023-03-04T08:27:12;99113.56;;;2.32;82.53
21086;BME280;34247;50.064;19.970;2023-03-04T08:28:17;99120.19;;;2.42;82.54
21086;BME280;34247;50.064;19.970;2023-03-04T08:29:24;99116.66;;;2.43;82.14
21086;BME280;34247;50.064;19.970;2023-03-04T08:30:28;99115.75;;;2.44;82.13
21086;BME280;34247;50.064;19.970;2023-03-04T08:31:32;99127.75;;;2.49;81.75
21086;BME280;34247;50.064;19.970;2023-03-04T08:32:38;99115.56;;;2.48;82.06
21086;BME280;34247;50.064;19.970;2023-03-04T08:33:42;99120.91;;;2.45;82.07
21086;BME280;34247;50.064;19.970;2023-03-04T08:34:47;99124.34;;;2.47;81.97
21086;BME280;34247;50.064;19.970;2023-03-04T08:35:54;99121.75;;;2.46;81.99
21086;BME280;34247;50.064;19.970;2023-03-04T08:36:58;99113.88;;;2.47;81.84
21086;BME280;34247;50.064;19.970;2023-03-04T08:38:04;99114.53;;;2.53;81.61
21086;BME280;34247;50.064;19.970;2023-03-04T08:39:18;99114.44;;;2.56;81.52
21086;BME280;34247;50.064;19.970;2023-03-04T08:40:26;99109.00;;;2.60;81.40
21086;BME280;34247;50.064;19.970;2023-03-04T08:41:31;99109.97;;;2.58;80.98